createdAt,value
2022-08-24T00:01:14.665Z,20.40
2022-08-24T00:03:41.499Z,20.40
2022-08-24T00:06:09.565Z,20.40
2022-08-24T00:08:36.955Z,20.40
2022-08-24T00:11:03.538Z,20.40
2022-08-24T00:13:32.531Z,20.40
2022-08-24T00:16:03.144Z,20.40
2022-08-24T00:18:29.407Z,20.40
2022-08-24T00:20:56.347Z,20.40
2022-08-24T00:23:22.643Z,20.40
2022-08-24T00:25:48.908Z,20.40
2022-08-24T00:28:15.859Z,20.40
2022-08-24T00:30:42.812Z,20.40
2022-08-24T00:33:09.199Z,20.40
2022-08-24T00:35:35.994Z,20.40
2022-08-24T00:38:02.427Z,20.40
2022-08-24T00:40:34.790Z,20.40
2022-08-24T00:43:03.377Z,20.40
2022-08-24T00:45:45.991Z,20.40
2022-08-24T00:48:20.380Z,20.40
2022-08-24T00:50:59.948Z,20.40
2022-08-24T00:53:33.707Z,20.40
2022-08-24T00:56:08.822Z,20.40
2022-08-24T01:00:07.609Z,20.40
2022-08-24T01:02:35.002Z,20.40
2022-08-24T01:05:05.212Z,20.40
2022-08-24T01:07:32.634Z,20.40
2022-08-24T01:10:07.185Z,20.40
2022-08-24T01:12:34.222Z,20.40
2022-08-24T01:15:00.863Z,20.40
2022-08-24T01:17:45.522Z,20.50
2022-08-24T01:20:11.876Z,20.50
2022-08-24T01:24:02.082Z,20.50
2022-08-24T01:26:35.527Z,20.40
2022-08-24T01:29:09.657Z,20.40
2022-08-24T01:31:35.954Z,20.50
2022-08-24T01:34:02.730Z,20.50
2022-08-24T01:36:37.532Z,20.50
2022-08-24T01:39:30.153Z,20.50
2022-08-24T01:41:56.787Z,20.40
2022-08-24T01:44:23.654Z,20.50
2022-08-24T01:46:54.642Z,20.50
2022-08-24T01:49:27.423Z,20.40
2022-08-24T01:51:53.890Z,20.50
2022-08-24T01:54:20.192Z,20.50
2022-08-24T01:56:46.431Z,20.50
2022-08-24T01:59:14.753Z,20.50
2022-08-24T02:01:44.384Z,20.50
2022-08-24T02:04:10.703Z,20.50
2022-08-24T02:06:38.125Z,20.50
2022-08-24T02:09:04.630Z,20.50
2022-08-24T02:11:31.146Z,20.50
2022-08-24T02:13:58.122Z,20.50
2022-08-24T02:16:27.929Z,20.60
2022-08-24T02:18:54.243Z,20.60
2022-08-24T02:21:20.531Z,20.60
2022-08-24T02:23:46.784Z,20.50
2022-08-24T02:26:13.026Z,20.50
2022-08-24T02:28:39.469Z,20.60
2022-08-24T02:31:06.088Z,20.60
2022-08-24T02:33:33.847Z,20.60
2022-08-24T02:36:00.159Z,20.60
2022-08-24T02:38:26.401Z,20.60
2022-08-24T02:40:52.614Z,20.60
2022-08-24T02:43:18.876Z,20.60
2022-08-24T02:45:50.060Z,20.60
2022-08-24T02:48:17.789Z,20.60
2022-08-24T02:50:46.827Z,20.60
2022-08-24T02:53:13.922Z,20.60
2022-08-24T02:55:41.292Z,20.60
2022-08-24T02:58:08.062Z,20.60
2022-08-24T03:00:35.924Z,20.60
2022-08-24T03:03:02.619Z,20.60
2022-08-24T03:05:29.118Z,20.60
2022-08-24T03:07:56.739Z,20.60
2022-08-24T03:10:23.125Z,20.60
2022-08-24T03:12:49.975Z,20.60
2022-08-24T03:15:34.607Z,20.60
2022-08-24T03:18:00.959Z,20.60
2022-08-24T03:20:27.198Z,20.60
2022-08-24T03:22:53.409Z,20.60
2022-08-24T03:25:20.220Z,20.60
2022-08-24T03:27:46.480Z,20.60
2022-08-24T03:30:13.974Z,20.60
2022-08-24T03:32:41.261Z,20.60
2022-08-24T03:35:09.066Z,20.60
2022-08-24T03:37:35.317Z,20.60
2022-08-24T03:40:03.049Z,20.60
2022-08-24T03:42:30.522Z,20.60
2022-08-24T03:44:56.773Z,20.60
2022-08-24T03:47:23.007Z,20.60
2022-08-24T03:49:49.707Z,20.60
2022-08-24T03:52:16.579Z,20.60
2022-08-24T03:54:42.846Z,20.60
2022-08-24T03:57:09.446Z,20.60
2022-08-24T03:59:39.391Z,20.60
2022-08-24T04:02:13.163Z,20.60
2022-08-24T04:04:41.274Z,20.60
2022-08-24T04:07:10.121Z,20.60
2022-08-24T04:09:36.412Z,20.60
2022-08-24T04:12:03.555Z,20.60
2022-08-24T04:14:30.256Z,20.60
2022-08-24T04:16:57.941Z,20.60
2022-08-24T04:19:24.769Z,20.60
2022-08-24T04:21:51.020Z,20.60
2022-08-24T04:24:19.149Z,20.60
2022-08-24T04:26:46.246Z,20.60
2022-08-24T04:29:13.272Z,20.60
2022-08-24T04:31:40.643Z,20.60
2022-08-24T04:34:06.966Z,20.70
2022-08-24T04:36:33.339Z,20.70
2022-08-24T04:39:00.790Z,20.70
2022-08-24T04:41:30.992Z,20.80
2022-08-24T04:43:58.641Z,20.40
2022-08-24T04:46:24.906Z,20.80
2022-08-24T04:48:51.206Z,20.80
2022-08-24T04:51:18.516Z,20.80
2022-08-24T04:53:45.235Z,20.80
2022-08-24T04:56:13.467Z,20.90
2022-08-24T04:58:39.778Z,20.90
2022-08-24T05:01:17.459Z,20.80
2022-08-24T05:03:45.535Z,20.90
2022-08-24T05:06:14.366Z,20.90
2022-08-24T05:08:40.779Z,20.90
2022-08-24T05:11:08.145Z,21.00
2022-08-24T05:13:35.353Z,21.00
2022-08-24T05:16:05.013Z,21.00
2022-08-24T05:18:32.963Z,21.00
2022-08-24T05:20:59.501Z,21.10
2022-08-24T05:23:26.471Z,21.10
2022-08-24T05:25:52.760Z,21.10
2022-08-24T05:28:19.759Z,21.20
2022-08-24T05:30:46.136Z,21.20
2022-08-24T05:33:13.391Z,21.20
2022-08-24T05:35:39.768Z,21.10
2022-08-24T05:38:10.237Z,21.20
2022-08-24T05:40:40.741Z,21.10
2022-08-24T05:43:07.123Z,21.00
2022-08-24T05:45:33.399Z,21.00
2022-08-24T05:48:00.772Z,21.00
2022-08-24T05:50:27.104Z,21.10
2022-08-24T05:52:54.594Z,21.30
2022-08-24T05:55:20.881Z,21.30
2022-08-24T05:57:47.098Z,21.30
2022-08-24T06:00:14.086Z,21.30
2022-08-24T06:02:40.546Z,21.30
2022-08-24T06:05:07.705Z,21.20
2022-08-24T06:07:34.052Z,21.30
2022-08-24T06:10:14.694Z,21.30
2022-08-24T06:12:59.557Z,21.30
2022-08-24T06:15:30.091Z,21.50
2022-08-24T06:17:56.538Z,21.60
2022-08-24T06:20:22.907Z,21.70
2022-08-24T06:22:49.164Z,21.70
2022-08-24T06:25:33.865Z,21.70
2022-08-24T06:28:00.122Z,21.80
2022-08-24T06:30:30.264Z,21.70
2022-08-24T06:33:01.429Z,21.70
2022-08-24T06:35:27.686Z,21.70
2022-08-24T06:37:55.654Z,21.80
2022-08-24T06:40:25.713Z,21.80
2022-08-24T06:42:52.465Z,21.90
2022-08-24T06:45:18.880Z,22.00
2022-08-24T06:47:45.217Z,22.00
2022-08-24T06:50:12.063Z,22.10
2022-08-24T06:52:38.957Z,22.20
2022-08-24T06:55:06.436Z,22.10
2022-08-24T06:57:32.784Z,22.30
2022-08-24T06:59:59.032Z,22.20
2022-08-24T07:02:25.471Z,22.10
2022-08-24T07:04:51.865Z,22.00
2022-08-24T07:07:18.309Z,21.80
2022-08-24T07:09:44.975Z,21.80
2022-08-24T07:12:11.214Z,21.70
2022-08-24T07:14:37.594Z,21.70
2022-08-24T07:17:03.994Z,21.80
2022-08-24T07:19:30.428Z,21.80
2022-08-24T07:21:58.133Z,21.90
2022-08-24T07:24:25.123Z,22.00
2022-08-24T07:26:52.538Z,22.00
2022-08-24T07:29:45.925Z,22.00
2022-08-24T07:32:13.370Z,22.00
2022-08-24T07:34:39.632Z,22.10
2022-08-24T07:37:07.590Z,22.10
2022-08-24T07:39:33.863Z,22.20
2022-08-24T07:42:20.968Z,22.00
2022-08-24T07:44:52.172Z,21.90
2022-08-24T07:47:37.789Z,21.90
2022-08-24T07:50:07.269Z,21.80
2022-08-24T07:52:33.550Z,21.90
2022-08-24T07:55:01.035Z,21.80
2022-08-24T07:57:28.049Z,21.90
2022-08-24T07:59:54.400Z,22.00
2022-08-24T08:02:20.698Z,22.20
2022-08-24T08:04:46.980Z,22.10
2022-08-24T08:07:14.329Z,22.20
2022-08-24T08:09:40.639Z,22.10
2022-08-24T08:12:07.507Z,22.00
2022-08-24T08:14:33.799Z,22.10
2022-08-24T08:17:00.076Z,22.10
2022-08-24T08:19:26.327Z,22.20
2022-08-24T08:22:11.034Z,22.40
2022-08-24T08:24:39.091Z,22.30
2022-08-24T08:27:05.494Z,22.20
2022-08-24T08:29:32.750Z,22.20
2022-08-24T08:31:59.880Z,22.00
2022-08-24T08:34:26.604Z,22.00
2022-08-24T08:36:52.999Z,22.20
2022-08-24T08:39:20.619Z,22.10
2022-08-24T08:46:16.302Z,22.20
2022-08-24T08:54:33.948Z,22.50
2022-08-24T09:00:30.510Z,22.60
2022-08-24T09:04:45.626Z,22.70
2022-08-24T09:07:45.293Z,22.50
2022-08-24T09:10:47.864Z,22.50
2022-08-24T09:14:54.760Z,22.50
2022-08-24T09:18:56.934Z,22.40
2022-08-24T09:21:55.640Z,22.40
2022-08-24T09:25:28.228Z,22.30
2022-08-24T09:29:26.111Z,22.40
2022-08-24T09:35:50.624Z,22.40
2022-08-24T09:40:09.018Z,22.60
2022-08-24T09:47:07.380Z,22.70
2022-08-24T09:51:32.992Z,22.80
2022-08-24T09:57:12.154Z,22.90
2022-08-24T10:06:34.930Z,22.70
2022-08-24T10:10:44.685Z,22.70
2022-08-24T10:13:38.409Z,22.60
2022-08-24T10:16:33.584Z,22.50
2022-08-24T10:20:50.158Z,22.50
2022-08-24T10:27:57.873Z,22.40
2022-08-24T10:30:59.375Z,22.80
2022-08-24T10:34:27.006Z,23.10
2022-08-24T10:40:39.213Z,23.30
2022-08-24T10:46:02.360Z,23.40
2022-08-24T10:56:07.474Z,23.40
2022-08-24T11:00:20.328Z,23.70
2022-08-24T11:03:02.992Z,25.50
2022-08-24T11:05:30.388Z,25.20
2022-08-24T11:08:04.953Z,26.20
2022-08-24T11:10:38.715Z,26.80
2022-08-24T11:13:23.020Z,26.40
2022-08-24T11:15:56.060Z,26.50
2022-08-24T11:18:22.497Z,26.80
2022-08-24T11:20:52.648Z,27.10
2022-08-24T11:23:28.347Z,27.80
2022-08-24T11:26:12.135Z,28.10
2022-08-24T11:29:02.376Z,28.40
2022-08-24T11:31:39.544Z,28.30
2022-08-24T11:34:13.752Z,27.80
2022-08-24T11:36:43.534Z,27.60
2022-08-24T11:39:35.834Z,26.00
2022-08-24T11:42:19.113Z,25.70
2022-08-24T11:45:33.051Z,26.20
2022-08-24T11:48:43.772Z,26.50
2022-08-24T11:55:05.593Z,26.70
2022-08-24T11:57:57.153Z,25.40
2022-08-24T12:00:26.382Z,25.70
2022-08-24T12:03:20.058Z,25.70
2022-08-24T12:05:59.151Z,25.30
2022-08-24T12:10:03.859Z,24.90
2022-08-24T12:13:26.757Z,24.50
2022-08-24T12:16:18.630Z,24.50
2022-08-24T12:18:59.280Z,24.80
2022-08-24T12:21:28.537Z,25.20
2022-08-24T12:24:09.879Z,25.10
2022-08-24T12:26:44.944Z,24.90
2022-08-24T12:29:29.918Z,24.90
2022-08-24T12:32:06.009Z,24.70
2022-08-24T12:34:58.822Z,25.00
2022-08-24T12:39:08.161Z,25.30
2022-08-24T12:42:20.621Z,25.70
2022-08-24T12:44:59.982Z,25.80
2022-08-24T12:47:35.862Z,25.50
2022-08-24T12:50:28.380Z,25.20
2022-08-24T12:54:49.628Z,24.90
2022-08-24T13:01:26.429Z,25.30
2022-08-24T13:05:37.751Z,25.30
2022-08-24T13:08:20.112Z,25.50
2022-08-24T13:10:59.863Z,26.00
2022-08-24T13:14:04.216Z,26.20
2022-08-24T13:17:22.941Z,26.00
2022-08-24T13:20:29.773Z,26.00
2022-08-24T13:23:31.688Z,26.40
2022-08-24T13:26:23.426Z,26.80
2022-08-24T13:28:55.615Z,27.10
2022-08-24T13:31:33.459Z,26.40
2022-08-24T13:42:10.478Z,26.40
2022-08-24T13:47:36.443Z,26.30
2022-08-24T13:51:43.367Z,26.70
2022-08-24T13:54:30.884Z,26.70
2022-08-24T13:57:22.974Z,26.30
2022-08-24T14:01:23.460Z,26.30
2022-08-24T14:10:54.208Z,27.00
2022-08-24T14:17:01.944Z,26.70
2022-08-24T14:21:10.811Z,26.70
2022-08-24T14:25:32.575Z,26.50
2022-08-24T14:28:44.176Z,27.10
2022-08-24T14:31:29.347Z,26.90
2022-08-24T14:37:40.058Z,26.50
2022-08-24T14:43:32.534Z,27.00
2022-08-24T14:52:13.769Z,26.70
2022-08-24T14:55:06.041Z,27.00
2022-08-24T14:57:47.256Z,26.90
2022-08-24T15:00:20.018Z,27.20
2022-08-24T15:04:36.128Z,26.50
2022-08-24T15:07:30.430Z,26.40
2022-08-24T15:09:57.944Z,26.50
2022-08-24T15:12:44.011Z,26.10
2022-08-24T15:15:35.442Z,25.90
2022-08-24T15:18:23.948Z,26.00
2022-08-24T15:21:45.566Z,26.20
2022-08-24T15:24:52.272Z,28.00
2022-08-24T15:27:40.354Z,26.00
2022-08-24T15:30:07.315Z,25.90
2022-08-24T15:32:50.489Z,25.90
2022-08-24T15:35:25.685Z,25.80
2022-08-24T15:37:52.161Z,25.90
2022-08-24T15:40:29.097Z,26.30
2022-08-24T15:43:00.411Z,26.50
2022-08-24T15:45:27.747Z,26.50
2022-08-24T15:47:54.767Z,26.00
2022-08-24T15:50:43.046Z,25.90
2022-08-24T15:53:54.461Z,26.10
2022-08-24T15:56:29.292Z,26.00
2022-08-24T15:59:09.348Z,25.90
2022-08-24T16:01:54.375Z,25.70
2022-08-24T16:04:40.981Z,25.70
2022-08-24T16:07:11.785Z,26.00
2022-08-24T16:09:39.356Z,25.90
2022-08-24T16:12:14.003Z,25.60
2022-08-24T16:14:47.562Z,25.50
2022-08-24T16:17:59.740Z,26.80
2022-08-24T16:20:32.166Z,25.40
2022-08-24T16:23:07.362Z,25.30
2022-08-24T16:25:38.737Z,25.20
2022-08-24T16:28:53.296Z,25.30
2022-08-24T16:33:33.074Z,25.00
2022-08-24T16:36:00.326Z,24.90
2022-08-24T16:38:31.241Z,24.80
2022-08-24T16:41:02.770Z,24.90
2022-08-24T16:43:29.205Z,24.80
2022-08-24T16:45:55.709Z,24.70
2022-08-24T16:48:22.422Z,24.70
2022-08-24T16:50:51.187Z,24.60
2022-08-24T16:53:18.350Z,24.50
2022-08-24T16:55:44.785Z,24.50
2022-08-24T16:58:11.150Z,24.40
2022-08-24T17:00:37.657Z,24.30
2022-08-24T17:03:04.211Z,24.30
2022-08-24T17:05:30.619Z,24.20
2022-08-24T17:07:59.321Z,24.20
2022-08-24T17:10:27.725Z,24.10
2022-08-24T17:12:54.115Z,24.00
2022-08-24T17:15:20.658Z,23.90
2022-08-24T17:18:03.842Z,23.90
2022-08-24T17:20:30.807Z,23.80
2022-08-24T17:22:57.290Z,23.70
2022-08-24T17:25:24.730Z,23.60
2022-08-24T17:27:53.091Z,23.60
2022-08-24T17:30:22.473Z,23.40
2022-08-24T17:32:51.369Z,23.20
2022-08-24T17:35:19.712Z,23.20
2022-08-24T17:37:46.469Z,23.00
2022-08-24T17:40:15.141Z,22.90
2022-08-24T17:42:50.964Z,22.70
2022-08-24T17:45:22.088Z,22.70
2022-08-24T17:47:48.843Z,22.60
2022-08-24T17:50:15.470Z,22.60
2022-08-24T17:52:42.709Z,22.50
2022-08-24T17:55:10.109Z,22.50
2022-08-24T17:57:36.384Z,22.40
2022-08-24T18:00:04.327Z,22.30
2022-08-24T18:02:30.595Z,22.20
2022-08-24T18:04:58.046Z,22.20
2022-08-24T18:07:49.575Z,22.20
2022-08-24T18:10:24.600Z,22.20
2022-08-24T18:12:51.046Z,22.20
2022-08-24T18:15:17.421Z,22.10
2022-08-24T18:17:49.823Z,22.00
2022-08-24T18:20:20.493Z,22.00
2022-08-24T18:22:47.726Z,21.90
2022-08-24T18:25:22.841Z,21.80
2022-08-24T18:27:51.083Z,21.70
2022-08-24T18:30:24.398Z,21.60
2022-08-24T18:32:55.173Z,21.60
2022-08-24T18:35:21.777Z,21.50
2022-08-24T18:37:48.126Z,21.40
2022-08-24T18:40:21.465Z,21.40
2022-08-24T18:42:50.979Z,21.40
2022-08-24T18:45:17.704Z,21.30
2022-08-24T18:47:45.421Z,21.30
2022-08-24T18:50:20.995Z,21.20
2022-08-24T18:52:47.857Z,21.30
2022-08-24T18:55:14.282Z,21.20
2022-08-24T18:57:40.775Z,21.10
2022-08-24T19:00:09.920Z,21.10
2022-08-24T19:02:40.485Z,19.00
2022-08-24T19:05:12.831Z,21.00
2022-08-24T19:07:46.409Z,21.00
2022-08-24T19:10:15.949Z,20.90
2022-08-24T19:12:48.107Z,20.90
2022-08-24T19:15:35.912Z,20.90
2022-08-24T19:18:06.224Z,20.70
2022-08-24T19:20:37.599Z,20.70
2022-08-24T19:23:13.606Z,20.70
2022-08-24T19:25:43.323Z,20.60
2022-08-24T19:28:12.404Z,20.60
2022-08-24T19:30:39.621Z,20.80
2022-08-24T19:33:10.397Z,20.60
2022-08-24T19:35:41.345Z,20.70
2022-08-24T19:38:14.661Z,20.70
2022-08-24T19:40:47.629Z,20.80
2022-08-24T19:43:15.249Z,20.80
2022-08-24T19:46:01.796Z,20.80
2022-08-24T19:48:42.069Z,20.80
2022-08-24T19:51:11.506Z,20.80
2022-08-24T19:53:40.829Z,20.90
2022-08-24T19:56:07.645Z,20.90
2022-08-24T20:00:31.150Z,21.00
2022-08-24T20:03:06.536Z,21.00
2022-08-24T20:05:37.447Z,20.90
2022-08-24T20:08:04.143Z,20.90
2022-08-24T20:10:34.089Z,20.90
2022-08-24T20:13:01.796Z,20.90
2022-08-24T20:15:29.031Z,20.90
2022-08-24T20:17:56.883Z,20.80
2022-08-24T20:20:24.084Z,20.90
2022-08-24T20:22:50.773Z,20.80
2022-08-24T20:25:18.558Z,20.80
2022-08-24T20:27:45.250Z,20.80
2022-08-24T20:30:13.767Z,20.80
2022-08-24T20:32:41.157Z,20.70
2022-08-24T20:35:10.351Z,20.60
2022-08-24T20:37:39.044Z,20.60
2022-08-24T20:40:07.670Z,20.60
2022-08-24T20:42:34.447Z,20.70
2022-08-24T20:45:01.747Z,20.60
2022-08-24T20:47:28.447Z,20.60
2022-08-24T20:49:55.767Z,20.50
2022-08-24T20:52:22.560Z,20.50
2022-08-24T20:54:49.611Z,20.40
2022-08-24T20:57:17.790Z,20.30
2022-08-24T20:59:45.230Z,20.30
2022-08-24T21:02:11.510Z,20.30
2022-08-24T21:04:38.026Z,20.20
2022-08-24T21:07:04.753Z,20.20
2022-08-24T21:09:31.226Z,20.20
2022-08-24T21:11:57.579Z,20.10
2022-08-24T21:14:23.965Z,20.20
2022-08-24T21:16:50.387Z,20.30
2022-08-24T21:19:17.046Z,20.30
2022-08-24T21:21:45.981Z,20.30
2022-08-24T21:24:12.228Z,20.30
2022-08-24T21:26:38.583Z,20.30
2022-08-24T21:29:06.630Z,20.30
2022-08-24T21:31:33.205Z,20.30
2022-08-24T21:34:18.444Z,20.30
2022-08-24T21:36:47.156Z,20.30
2022-08-24T21:39:14.283Z,20.30
2022-08-24T21:41:40.860Z,20.30
2022-08-24T21:44:07.243Z,20.30
2022-08-24T21:46:35.949Z,20.30
2022-08-24T21:49:03.483Z,20.30
2022-08-24T21:51:29.736Z,20.30
2022-08-24T21:53:59.483Z,20.30
2022-08-24T21:56:29.041Z,20.30
2022-08-24T21:58:55.380Z,20.30
2022-08-24T22:01:21.743Z,20.20
2022-08-24T22:03:48.171Z,20.30
2022-08-24T22:06:14.545Z,20.30
2022-08-24T22:08:42.020Z,20.30
2022-08-24T22:11:09.241Z,20.40
2022-08-24T22:13:35.858Z,20.30
2022-08-24T22:16:02.709Z,20.30
2022-08-24T22:18:29.701Z,20.40
2022-08-24T22:20:56.052Z,20.40
2022-08-24T22:23:23.772Z,20.40
2022-08-24T22:25:52.161Z,20.40
2022-08-24T22:28:18.676Z,20.30
2022-08-24T22:30:47.460Z,20.30
2022-08-24T22:33:15.805Z,20.20
2022-08-24T22:35:44.900Z,20.10
2022-08-24T22:38:12.041Z,20.00
2022-08-24T22:40:38.339Z,19.90
2022-08-24T22:43:05.002Z,19.90
2022-08-24T22:45:31.426Z,19.80
2022-08-24T22:47:58.198Z,19.70
2022-08-24T22:50:24.482Z,19.60
2022-08-24T22:52:51.853Z,19.50
2022-08-24T22:55:18.179Z,19.50
2022-08-24T22:57:51.191Z,19.40
2022-08-24T23:00:18.205Z,19.40
2022-08-24T23:02:44.495Z,19.30
2022-08-24T23:05:10.810Z,19.30
2022-08-24T23:07:37.123Z,19.20
2022-08-24T23:10:08.284Z,19.00
2022-08-24T23:12:34.603Z,19.00
2022-08-24T23:15:00.968Z,19.10
2022-08-24T23:17:27.255Z,19.00
2022-08-24T23:19:59.901Z,18.90
2022-08-24T23:22:30.718Z,18.90
2022-08-24T23:24:58.690Z,19.00
2022-08-24T23:27:25.206Z,19.10
2022-08-24T23:29:52.172Z,19.00
2022-08-24T23:32:18.605Z,19.00
2022-08-24T23:34:47.822Z,19.00
2022-08-24T23:37:17.065Z,18.90
2022-08-24T23:39:43.375Z,18.90
2022-08-24T23:42:09.675Z,18.90
2022-08-24T23:44:35.917Z,18.80
2022-08-24T23:47:03.434Z,18.90
2022-08-24T23:49:30.143Z,19.00
2022-08-24T23:51:57.329Z,19.00
2022-08-24T23:54:24.106Z,19.00
2022-08-24T23:56:50.838Z,19.00
2022-08-24T23:59:23.083Z,19.00
